sensor_id;sensor_type;location;lat;lon;timestamp;temperature;humidity
46492;DHT22;32206;51.446;6.792;2023-08-20T00:03:31;20.60;99.90
46492;DHT22;32206;51.446;6.792;2023-08-20T00:05:57;20.60;99.90
46492;DHT22;32206;51.446;6.792;2023-08-20T00:08:23;20.60;99.90
46492;DHT22;32206;51.446;6.792;2023-08-20T00:10:48;20.60;99.90
46492;DHT22;32206;51.446;6.792;2023-08-20T00:13:14;20.50;99.90
46492;DHT22;32206;51.446;6.792;2023-08-20T00:19:02;20.50;99.90
46492;DHT22;32206;51.446;6.792;2023-08-20T00:21:28;20.40;99.90
46492;DHT22;32206;51.446;6.792;2023-08-20T00:23:54;20.40;99.90
46492;DHT22;32206;51.446;6.792;2023-08-20T00:26:20;20.30;99.90
46492;DHT22;32206;51.446;6.792;2023-08-20T00:28:46;20.40;99.90
46492;DHT22;32206;51.446;6.792;2023-08-20T00:31:12;20.40;99.90
46492;DHT22;32206;51.446;6.792;2023-08-20T00:33:37;20.30;99.90
46492;DHT22;32206;51.446;6.792;2023-08-20T00:36:03;20.30;99.90
46492;DHT22;32206;51.446;6.792;2023-08-20T00:38:28;20.30;99.90
46492;DHT22;32206;51.446;6.792;2023-08-20T00:40:54;20.30;99.90
46492;DHT22;32206;51.446;6.792;2023-08-20T00:43:20;20.30;99.90
46492;DHT22;32206;51.446;6.792;2023-08-20T00:45:45;20.30;99.90
46492;DHT22;32206;51.446;6.792;2023-08-20T00:48:11;20.30;99.90
46492;DHT22;32206;51.446;6.792;2023-08-20T00:50:38;20.30;99.90
46492;DHT22;32206;51.446;6.792;2023-08-20T00:53:05;20.30;99.90
46492;DHT22;32206;51.446;6.792;2023-08-20T00:55:31;20.30;99.90
46492;DHT22;32206;51.446;6.792;2023-08-20T00:57:56;20.30;99.90
46492;DHT22;32206;51.446;6.792;2023-08-20T01:00:24;20.30;99.90
46492;DHT22;32206;51.446;6.792;2023-08-20T01:02:49;20.20;99.90
46492;DHT22;32206;51.446;6.792;2023-08-20T01:05:15;20.20;99.90
46492;DHT22;32206;51.446;6.792;2023-08-20T01:10:40;20.20;99.90
46492;DHT22;32206;51.446;6.792;2023-08-20T01:13:08;20.10;99.90
46492;DHT22;32206;51.446;6.792;2023-08-20T01:15:35;20.10;99.90
46492;DHT22;32206;51.446;6.792;2023-08-20T01:18:00;20.10;99.90
46492;DHT22;32206;51.446;6.792;2023-08-20T01:24:04;20.10;99.90
46492;DHT22;32206;51.446;6.792;2023-08-20T01:26:55;20.10;99.90
46492;DHT22;32206;51.446;6.792;2023-08-20T01:32:44;20.00;99.90
46492;DHT22;32206;51.446;6.792;2023-08-20T01:35:13;20.00;99.90
46492;DHT22;32206;51.446;6.792;2023-08-20T01:37:42;20.00;99.90
46492;DHT22;32206;51.446;6.792;2023-08-20T01:40:08;20.00;99.90
46492;DHT22;32206;51.446;6.792;2023-08-20T01:42:39;19.80;99.90
46492;DHT22;32206;51.446;6.792;2023-08-20T01:45:05;19.90;99.90
46492;DHT22;32206;51.446;6.792;2023-08-20T01:47:32;19.90;99.90
46492;DHT22;32206;51.446;6.792;2023-08-20T01:49:59;19.90;99.90
46492;DHT22;32206;51.446;6.792;2023-08-20T01:52:25;19.90;99.90
46492;DHT22;32206;51.446;6.792;2023-08-20T01:54:51;19.80;99.90
46492;DHT22;32206;51.446;6.792;2023-08-20T01:57:16;19.90;99.90
46492;DHT22;32206;51.446;6.792;2023-08-20T01:59:42;19.90;99.90
46492;DHT22;32206;51.446;6.792;2023-08-20T02:02:08;19.90;99.90
46492;DHT22;32206;51.446;6.792;2023-08-20T02:04:34;19.90;99.90
46492;DHT22;32206;51.446;6.792;2023-08-20T02:06:59;19.90;99.90
46492;DHT22;32206;51.446;6.792;2023-08-20T02:12:47;19.90;99.90
46492;DHT22;32206;51.446;6.792;2023-08-20T02:15:12;19.90;99.90
46492;DHT22;32206;51.446;6.792;2023-08-20T02:17:38;19.90;99.90
46492;DHT22;32206;51.446;6.792;2023-08-20T02:20:04;19.90;99.90
46492;DHT22;32206;51.446;6.792;2023-08-20T02:22:30;19.90;99.90
46492;DHT22;32206;51.446;6.792;2023-08-20T02:24:56;20.00;99.90
46492;DHT22;32206;51.446;6.792;2023-08-20T02:27:22;20.00;99.90
46492;DHT22;32206;51.446;6.792;2023-08-20T02:29:49;19.80;99.90
46492;DHT22;32206;51.446;6.792;2023-08-20T02:32:14;19.90;99.90
46492;DHT22;32206;51.446;6.792;2023-08-20T02:34:40;19.90;99.90
46492;DHT22;32206;51.446;6.792;2023-08-20T02:37:06;19.90;99.90
46492;DHT22;32206;51.446;6.792;2023-08-20T02:43:04;19.90;99.90
46492;DHT22;32206;51.446;6.792;2023-08-20T02:45:29;19.90;99.90
46492;DHT22;32206;51.446;6.792;2023-08-20T02:47:56;19.90;99.90
46492;DHT22;32206;51.446;6.792;2023-08-20T02:50:22;19.90;99.90
46492;DHT22;32206;51.446;6.792;2023-08-20T02:52:48;19.80;99.90
46492;DHT22;32206;51.446;6.792;2023-08-20T02:55:13;19.80;99.90
46492;DHT22;32206;51.446;6.792;2023-08-20T02:57:39;19.80;99.90
46492;DHT22;32206;51.446;6.792;2023-08-20T03:00:05;19.80;99.90
46492;DHT22;32206;51.446;6.792;2023-08-20T03:02:35;19.80;99.90
46492;DHT22;32206;51.446;6.792;2023-08-20T03:05:00;19.80;99.90
46492;DHT22;32206;51.446;6.792;2023-08-20T03:07:26;19.70;99.90
46492;DHT22;32206;51.446;6.792;2023-08-20T03:13:17;19.80;99.90
46492;DHT22;32206;51.446;6.792;2023-08-20T03:19:06;19.80;99.90
46492;DHT22;32206;51.446;6.792;2023-08-20T03:21:32;19.80;99.90
46492;DHT22;32206;51.446;6.792;2023-08-20T03:23:57;19.80;99.90
46492;DHT22;32206;51.446;6.792;2023-08-20T03:26:23;19.80;99.90
46492;DHT22;32206;51.446;6.792;2023-08-20T03:28:48;19.80;99.90
46492;DHT22;32206;51.446;6.792;2023-08-20T03:31:14;19.80;99.90
46492;DHT22;32206;51.446;6.792;2023-08-20T03:33:40;19.80;99.90
46492;DHT22;32206;51.446;6.792;2023-08-20T03:36:05;19.80;99.90
46492;DHT22;32206;51.446;6.792;2023-08-20T03:38:31;19.80;99.90
46492;DHT22;32206;51.446;6.792;2023-08-20T03:40:56;19.70;99.90
46492;DHT22;32206;51.446;6.792;2023-08-20T03:43:22;19.70;99.90
46492;DHT22;32206;51.446;6.792;2023-08-20T03:45:54;19.70;99.90
46492;DHT22;32206;51.446;6.792;2023-08-20T03:48:19;19.70;99.90
46492;DHT22;32206;51.446;6.792;2023-08-20T03:50:46;19.90;99.90
46492;DHT22;32206;51.446;6.792;2023-08-20T03:53:12;19.70;99.90
46492;DHT22;32206;51.446;6.792;2023-08-20T03:55:37;19.70;99.90
46492;DHT22;32206;51.446;6.792;2023-08-20T03:58:03;19.70;99.90
46492;DHT22;32206;51.446;6.792;2023-08-20T04:00:29;19.60;99.90
46492;DHT22;32206;51.446;6.792;2023-08-20T04:02:54;19.60;99.90
46492;DHT22;32206;51.446;6.792;2023-08-20T04:05:20;19.60;99.90
46492;DHT22;32206;51.446;6.792;2023-08-20T04:07:46;19.60;99.90
46492;DHT22;32206;51.446;6.792;2023-08-20T04:10:11;19.50;99.90
46492;DHT22;32206;51.446;6.792;2023-08-20T04:12:37;19.50;99.90
46492;DHT22;32206;51.446;6.792;2023-08-20T04:15:03;19.50;99.90
46492;DHT22;32206;51.446;6.792;2023-08-20T04:17:29;19.50;99.90
46492;DHT22;32206;51.446;6.792;2023-08-20T04:19:55;19.50;99.90
46492;DHT22;32206;51.446;6.792;2023-08-20T04:22:20;19.40;99.90
46492;DHT22;32206;51.446;6.792;2023-08-20T04:24:46;19.40;99.90
46492;DHT22;32206;51.446;6.792;2023-08-20T04:27:12;19.40;99.90
46492;DHT22;32206;51.446;6.792;2023-08-20T04:29:37;19.40;99.90
46492;DHT22;32206;51.446;6.792;2023-08-20T04:32:04;19.30;99.90
46492;DHT22;32206;51.446;6.792;2023-08-20T04:34:30;19.30;99.90
46492;DHT22;32206;51.446;6.792;2023-08-20T04:36:55;19.30;99.90
46492;DHT22;32206;51.446;6.792;2023-08-20T04:39:21;19.20;99.90
46492;DHT22;32206;51.446;6.792;2023-08-20T04:41:47;19.20;99.90
46492;DHT22;32206;51.446;6.792;2023-08-20T04:50:57;19.30;99.90
46492;DHT22;32206;51.446;6.792;2023-08-20T04:53:24;19.20;99.90
46492;DHT22;32206;51.446;6.792;2023-08-20T04:55:49;19.20;99.90
46492;DHT22;32206;51.446;6.792;2023-08-20T04:58:15;19.20;99.90
46492;DHT22;32206;51.446;6.792;2023-08-20T05:00:41;19.20;99.90
46492;DHT22;32206;51.446;6.792;2023-08-20T05:03:07;19.20;99.90
46492;DHT22;32206;51.446;6.792;2023-08-20T05:05:33;19.20;99.90
46492;DHT22;32206;51.446;6.792;2023-08-20T05:07:59;19.20;99.90
46492;DHT22;32206;51.446;6.792;2023-08-20T05:10:24;19.20;99.90
46492;DHT22;32206;51.446;6.792;2023-08-20T05:12:50;19.10;99.90
46492;DHT22;32206;51.446;6.792;2023-08-20T05:15:16;19.20;99.90
46492;DHT22;32206;51.446;6.792;2023-08-20T05:18:01;19.10;99.90
46492;DHT22;32206;51.446;6.792;2023-08-20T05:20:26;19.20;99.90
46492;DHT22;32206;51.446;6.792;2023-08-20T05:22:52;19.20;99.90
46492;DHT22;32206;51.446;6.792;2023-08-20T05:25:18;19.20;99.90
46492;DHT22;32206;51.446;6.792;2023-08-20T05:34:29;19.20;99.90
46492;DHT22;32206;51.446;6.792;2023-08-20T05:36:55;19.20;99.90
46492;DHT22;32206;51.446;6.792;2023-08-20T05:39:21;19.30;99.90
46492;DHT22;32206;51.446;6.792;2023-08-20T05:41:48;19.30;99.90
46492;DHT22;32206;51.446;6.792;2023-08-20T05:44:14;19.30;99.90
46492;DHT22;32206;51.446;6.792;2023-08-20T05:46:40;19.30;99.90
46492;DHT22;32206;51.446;6.792;2023-08-20T05:52:28;19.50;99.90
46492;DHT22;32206;51.446;6.792;2023-08-20T05:54:54;19.50;99.90
46492;DHT22;32206;51.446;6.792;2023-08-20T05:57:19;19.50;99.90
46492;DHT22;32206;51.446;6.792;2023-08-20T05:59:45;19.50;99.90
46492;DHT22;32206;51.446;6.792;2023-08-20T06:02:16;19.60;99.90
46492;DHT22;32206;51.446;6.792;2023-08-20T06:04:42;19.60;99.90
46492;DHT22;32206;51.446;6.792;2023-08-20T06:07:07;19.60;99.90
46492;DHT22;32206;51.446;6.792;2023-08-20T06:09:33;19.70;99.90
46492;DHT22;32206;51.446;6.792;2023-08-20T06:11:58;19.70;99.90
46492;DHT22;32206;51.446;6.792;2023-08-20T06:14:24;19.80;99.90
46492;DHT22;32206;51.446;6.792;2023-08-20T06:16:50;19.80;99.90
46492;DHT22;32206;51.446;6.792;2023-08-20T06:19:16;19.90;99.90
46492;DHT22;32206;51.446;6.792;2023-08-20T06:21:42;20.00;99.90
46492;DHT22;32206;51.446;6.792;2023-08-20T06:24:07;20.00;99.90
46492;DHT22;32206;51.446;6.792;2023-08-20T06:26:34;20.10;99.90
46492;DHT22;32206;51.446;6.792;2023-08-20T06:28:59;20.20;99.90
46492;DHT22;32206;51.446;6.792;2023-08-20T06:31:25;20.30;99.90
46492;DHT22;32206;51.446;6.792;2023-08-20T06:33:51;20.30;99.90
46492;DHT22;32206;51.446;6.792;2023-08-20T06:36:17;20.40;99.90
46492;DHT22;32206;51.446;6.792;2023-08-20T06:38:42;20.40;99.90
46492;DHT22;32206;51.446;6.792;2023-08-20T06:41:08;20.50;99.90
46492;DHT22;32206;51.446;6.792;2023-08-20T06:43:34;20.60;99.90
46492;DHT22;32206;51.446;6.792;2023-08-20T06:49:22;20.70;99.90
46492;DHT22;32206;51.446;6.792;2023-08-20T06:51:47;20.80;99.90
46492;DHT22;32206;51.446;6.792;2023-08-20T06:58:03;20.90;99.90
46492;DHT22;32206;51.446;6.792;2023-08-20T07:00:29;21.00;99.90
46492;DHT22;32206;51.446;6.792;2023-08-20T07:02:54;21.10;99.90
46492;DHT22;32206;51.446;6.792;2023-08-20T07:05:20;21.20;99.90
46492;DHT22;32206;51.446;6.792;2023-08-20T07:07:46;21.20;99.90
46492;DHT22;32206;51.446;6.792;2023-08-20T07:10:12;21.40;99.90
46492;DHT22;32206;51.446;6.792;2023-08-20T07:12:38;21.40;99.90
46492;DHT22;32206;51.446;6.792;2023-08-20T07:15:04;21.50;99.90
46492;DHT22;32206;51.446;6.792;2023-08-20T07:17:30;21.60;99.90
46492;DHT22;32206;51.446;6.792;2023-08-20T07:19:56;21.60;99.90
46492;DHT22;32206;51.446;6.792;2023-08-20T07:22:22;21.70;99.90
46492;DHT22;32206;51.446;6.792;2023-08-20T07:24:48;21.70;99.90
46492;DHT22;32206;51.446;6.792;2023-08-20T07:27:13;21.80;99.90
46492;DHT22;32206;51.446;6.792;2023-08-20T07:36:30;22.10;99.90
46492;DHT22;32206;51.446;6.792;2023-08-20T07:38:56;22.20;99.90
46492;DHT22;32206;51.446;6.792;2023-08-20T07:41:22;22.30;99.90
46492;DHT22;32206;51.446;6.792;2023-08-20T07:43:49;22.30;99.90
46492;DHT22;32206;51.446;6.792;2023-08-20T07:46:15;22.50;99.90
46492;DHT22;32206;51.446;6.792;2023-08-20T07:48:41;22.50;99.90
46492;DHT22;32206;51.446;6.792;2023-08-20T07:51:07;22.60;99.90
46492;DHT22;32206;51.446;6.792;2023-08-20T07:57:14;22.80;99.90
46492;DHT22;32206;51.446;6.792;2023-08-20T08:03:02;23.00;99.90
46492;DHT22;32206;51.446;6.792;2023-08-20T08:05:28;23.10;96.20
46492;DHT22;32206;51.446;6.792;2023-08-20T08:14:38;23.40;86.20
46492;DHT22;32206;51.446;6.792;2023-08-20T08:17:04;23.50;60.80
46492;DHT22;32206;51.446;6.792;2023-08-20T08:19:30;23.50;42.80
46492;DHT22;32206;51.446;6.792;2023-08-20T08:28:37;23.90;28.10
46492;DHT22;32206;51.446;6.792;2023-08-20T08:31:02;24.00;1.00
46492;DHT22;32206;51.446;6.792;2023-08-20T08:33:28;24.10;1.00
46492;DHT22;32206;51.446;6.792;2023-08-20T08:35:54;24.20;1.00
46492;DHT22;32206;51.446;6.792;2023-08-20T08:38:20;24.30;1.00
46492;DHT22;32206;51.446;6.792;2023-08-20T08:40:46;24.40;1.00
46492;DHT22;32206;51.446;6.792;2023-08-20T08:43:13;24.50;1.00
46492;DHT22;32206;51.446;6.792;2023-08-20T08:45:45;24.50;99.90
46492;DHT22;32206;51.446;6.792;2023-08-20T08:48:12;24.50;99.90
46492;DHT22;32206;51.446;6.792;2023-08-20T08:50:38;24.50;99.90
46492;DHT22;32206;51.446;6.792;2023-08-20T08:53:05;24.40;1.00
46492;DHT22;32206;51.446;6.792;2023-08-20T08:55:31;24.40;99.90
46492;DHT22;32206;51.446;6.792;2023-08-20T08:57:57;24.40;1.00
46492;DHT22;32206;51.446;6.792;2023-08-20T09:00:23;24.40;1.00
46492;DHT22;32206;51.446;6.792;2023-08-20T09:02:48;24.40;99.90
46492;DHT22;32206;51.446;6.792;2023-08-20T09:05:14;24.40;99.90
46492;DHT22;32206;51.446;6.792;2023-08-20T09:07:44;24.40;1.00
46492;DHT22;32206;51.446;6.792;2023-08-20T09:10:12;24.50;99.90
46492;DHT22;32206;51.446;6.792;2023-08-20T09:12:38;24.50;96.50
46492;DHT22;32206;51.446;6.792;2023-08-20T09:15:10;24.50;1.00
46492;DHT22;32206;51.446;6.792;2023-08-20T09:17:36;24.60;99.90
46492;DHT22;32206;51.446;6.792;2023-08-20T09:26:46;25.30;99.90
46492;DHT22;32206;51.446;6.792;2023-08-20T09:29:20;25.40;1.00
46492;DHT22;32206;51.446;6.792;2023-08-20T09:31:46;25.60;99.90
46492;DHT22;32206;51.446;6.792;2023-08-20T09:34:13;25.50;1.00
46492;DHT22;32206;51.446;6.792;2023-08-20T09:36:39;25.60;98.40
46492;DHT22;32206;51.446;6.792;2023-08-20T09:39:05;25.80;1.00
46492;DHT22;32206;51.446;6.792;2023-08-20T09:41:30;26.00;1.00
46492;DHT22;32206;51.446;6.792;2023-08-20T09:43:58;26.30;99.90
46492;DHT22;32206;51.446;6.792;2023-08-20T09:46:27;26.40;99.90
46492;DHT22;32206;51.446;6.792;2023-08-20T09:48:57;26.40;99.90
46492;DHT22;32206;51.446;6.792;2023-08-20T09:51:27;26.40;1.00
46492;DHT22;32206;51.446;6.792;2023-08-20T09:54:21;26.20;99.90
46492;DHT22;32206;51.446;6.792;2023-08-20T09:56:54;26.10;99.90
46492;DHT22;32206;51.446;6.792;2023-08-20T09:59:24;26.20;1.00
46492;DHT22;32206;51.446;6.792;2023-08-20T10:01:50;26.40;99.90
46492;DHT22;32206;51.446;6.792;2023-08-20T10:04:17;26.50;1.00
46492;DHT22;32206;51.446;6.792;2023-08-20T10:06:44;26.50;99.90
46492;DHT22;32206;51.446;6.792;2023-08-20T10:09:10;26.30;1.00
46492;DHT22;32206;51.446;6.792;2023-08-20T10:11:35;26.20;99.90
46492;DHT22;32206;51.446;6.792;2023-08-20T10:14:03;26.20;99.90
46492;DHT22;32206;51.446;6.792;2023-08-20T10:16:28;26.30;99.90
46492;DHT22;32206;51.446;6.792;2023-08-20T10:18:54;26.30;1.00
46492;DHT22;32206;51.446;6.792;2023-08-20T10:21:25;26.30;99.90
46492;DHT22;32206;51.446;6.792;2023-08-20T10:23:53;26.30;81.20
46492;DHT22;32206;51.446;6.792;2023-08-20T10:26:20;26.60;51.60
46492;DHT22;32206;51.446;6.792;2023-08-20T10:28:47;26.80;1.00
46492;DHT22;32206;51.446;6.792;2023-08-20T10:31:15;27.00;1.00
46492;DHT22;32206;51.446;6.792;2023-08-20T10:39:35;27.30;99.90
46492;DHT22;32206;51.446;6.792;2023-08-20T10:42:25;27.40;99.90
46492;DHT22;32206;51.446;6.792;2023-08-20T10:45:08;27.40;99.90
46492;DHT22;32206;51.446;6.792;2023-08-20T10:47:44;27.40;99.90
46492;DHT22;32206;51.446;6.792;2023-08-20T10:50:19;27.30;99.90
46492;DHT22;32206;51.446;6.792;2023-08-20T10:52:49;27.20;99.90
46492;DHT22;32206;51.446;6.792;2023-08-20T10:55:15;27.20;99.90
46492;DHT22;32206;51.446;6.792;2023-08-20T10:57:41;27.30;99.90
46492;DHT22;32206;51.446;6.792;2023-08-20T11:00:07;27.60;99.90
46492;DHT22;32206;51.446;6.792;2023-08-20T11:02:40;27.90;95.60
46492;DHT22;32206;51.446;6.792;2023-08-20T11:05:17;28.00;1.00
46492;DHT22;32206;51.446;6.792;2023-08-20T11:07:47;28.10;1.00
46492;DHT22;32206;51.446;6.792;2023-08-20T11:13:36;27.50;1.00
46492;DHT22;32206;51.446;6.792;2023-08-20T11:16:03;27.40;1.00
46492;DHT22;32206;51.446;6.792;2023-08-20T11:18:35;27.40;1.00
46492;DHT22;32206;51.446;6.792;2023-08-20T11:21:01;27.40;1.00
46492;DHT22;32206;51.446;6.792;2023-08-20T11:23:28;27.50;1.00
46492;DHT22;32206;51.446;6.792;2023-08-20T11:25:55;27.80;1.00
46492;DHT22;32206;51.446;6.792;2023-08-20T11:28:21;28.10;1.00
46492;DHT22;32206;51.446;6.792;2023-08-20T11:30:47;28.40;1.00
46492;DHT22;32206;51.446;6.792;2023-08-20T11:33:13;28.70;1.00
46492;DHT22;32206;51.446;6.792;2023-08-20T11:35:38;28.80;99.90
46492;DHT22;32206;51.446;6.792;2023-08-20T11:38:04;29.00;99.90
46492;DHT22;32206;51.446;6.792;2023-08-20T11:40:30;29.10;99.90
46492;DHT22;32206;51.446;6.792;2023-08-20T11:42:56;29.30;99.90
46492;DHT22;32206;51.446;6.792;2023-08-20T11:45:22;29.50;99.90
46492;DHT22;32206;51.446;6.792;2023-08-20T11:54:32;29.90;99.90
46492;DHT22;32206;51.446;6.792;2023-08-20T11:57:02;30.10;99.90
46492;DHT22;32206;51.446;6.792;2023-08-20T11:59:28;30.30;99.90
46492;DHT22;32206;51.446;6.792;2023-08-20T12:01:58;30.20;99.90
46492;DHT22;32206;51.446;6.792;2023-08-20T12:04:27;30.00;99.90
46492;DHT22;32206;51.446;6.792;2023-08-20T12:09:29;29.50;99.90
46492;DHT22;32206;51.446;6.792;2023-08-20T12:11:55;29.70;99.90
46492;DHT22;32206;51.446;6.792;2023-08-20T12:14:21;29.60;99.90
46492;DHT22;32206;51.446;6.792;2023-08-20T12:16:47;29.60;99.90
46492;DHT22;32206;51.446;6.792;2023-08-20T12:19:13;29.60;99.90
46492;DHT22;32206;51.446;6.792;2023-08-20T12:21:40;29.80;99.90
46492;DHT22;32206;51.446;6.792;2023-08-20T12:24:08;29.90;99.90
46492;DHT22;32206;51.446;6.792;2023-08-20T12:26:34;30.20;99.90
46492;DHT22;32206;51.446;6.792;2023-08-20T12:35:44;30.10;99.90
46492;DHT22;32206;51.446;6.792;2023-08-20T12:38:10;30.00;99.90
46492;DHT22;32206;51.446;6.792;2023-08-20T12:40:35;30.10;99.90
46492;DHT22;32206;51.446;6.792;2023-08-20T12:43:01;29.90;99.90
46492;DHT22;32206;51.446;6.792;2023-08-20T12:45:27;30.00;99.90
46492;DHT22;32206;51.446;6.792;2023-08-20T12:47:52;30.00;99.90
46492;DHT22;32206;51.446;6.792;2023-08-20T12:50:19;30.10;99.90
46492;DHT22;32206;51.446;6.792;2023-08-20T12:52:45;30.30;99.90
46492;DHT22;32206;51.446;6.792;2023-08-20T12:59:12;30.70;99.90
46492;DHT22;32206;51.446;6.792;2023-08-20T13:01:38;30.50;99.90
46492;DHT22;32206;51.446;6.792;2023-08-20T13:04:03;30.30;99.90
46492;DHT22;32206;51.446;6.792;2023-08-20T13:06:30;30.20;99.90
46492;DHT22;32206;51.446;6.792;2023-08-20T13:08:56;30.40;99.90
46492;DHT22;32206;51.446;6.792;2023-08-20T13:11:25;30.40;99.90
46492;DHT22;32206;51.446;6.792;2023-08-20T13:13:51;30.50;99.90
46492;DHT22;32206;51.446;6.792;2023-08-20T13:16:18;30.60;99.90
46492;DHT22;32206;51.446;6.792;2023-08-20T13:18:48;30.40;99.90
46492;DHT22;32206;51.446;6.792;2023-08-20T13:21:14;30.50;99.90
46492;DHT22;32206;51.446;6.792;2023-08-20T13:23:40;30.40;99.90
46492;DHT22;32206;51.446;6.792;2023-08-20T13:26:06;30.30;99.90
46492;DHT22;32206;51.446;6.792;2023-08-20T13:35:16;30.20;99.90
46492;DHT22;32206;51.446;6.792;2023-08-20T13:37:43;30.40;99.90
46492;DHT22;32206;51.446;6.792;2023-08-20T13:40:10;30.50;99.90
46492;DHT22;32206;51.446;6.792;2023-08-20T13:42:37;30.20;99.90
46492;DHT22;32206;51.446;6.792;2023-08-20T13:45:04;30.10;99.90
46492;DHT22;32206;51.446;6.792;2023-08-20T13:50:06;30.30;99.90
46492;DHT22;32206;51.446;6.792;2023-08-20T13:52:32;30.30;99.90
46492;DHT22;32206;51.446;6.792;2023-08-20T13:54:57;30.10;99.90
46492;DHT22;32206;51.446;6.792;2023-08-20T13:57:23;30.00;99.90
46492;DHT22;32206;51.446;6.792;2023-08-20T13:59:49;30.00;99.90
46492;DHT22;32206;51.446;6.792;2023-08-20T14:02:14;30.00;99.90
46492;DHT22;32206;51.446;6.792;2023-08-20T14:04:40;30.00;99.90
46492;DHT22;32206;51.446;6.792;2023-08-20T14:07:06;29.90;99.90
46492;DHT22;32206;51.446;6.792;2023-08-20T14:09:32;29.80;99.90
46492;DHT22;32206;51.446;6.792;2023-08-20T14:15:50;29.80;99.90
46492;DHT22;32206;51.446;6.792;2023-08-20T14:21:37;29.90;99.90
46492;DHT22;32206;51.446;6.792;2023-08-20T14:24:03;29.90;99.90
46492;DHT22;32206;51.446;6.792;2023-08-20T14:26:29;30.00;99.90
46492;DHT22;32206;51.446;6.792;2023-08-20T14:32:23;30.00;99.90
46492;DHT22;32206;51.446;6.792;2023-08-20T14:34:49;30.10;99.90
46492;DHT22;32206;51.446;6.792;2023-08-20T14:37:14;30.20;99.90
46492;DHT22;32206;51.446;6.792;2023-08-20T14:39:40;30.10;99.90
46492;DHT22;32206;51.446;6.792;2023-08-20T14:42:06;30.10;99.90
46492;DHT22;32206;51.446;6.792;2023-08-20T14:44:31;30.10;99.90
46492;DHT22;32206;51.446;6.792;2023-08-20T14:46:57;30.00;99.90
46492;DHT22;32206;51.446;6.792;2023-08-20T14:49:23;30.00;99.90
46492;DHT22;32206;51.446;6.792;2023-08-20T14:54:58;29.90;99.90
46492;DHT22;32206;51.446;6.792;2023-08-20T14:57:24;29.90;99.90
46492;DHT22;32206;51.446;6.792;2023-08-20T14:59:51;30.00;99.90
46492;DHT22;32206;51.446;6.792;2023-08-20T15:02:16;30.10;99.90
46492;DHT22;32206;51.446;6.792;2023-08-20T15:04:42;30.20;99.90
46492;DHT22;32206;51.446;6.792;2023-08-20T15:07:08;30.20;99.90
46492;DHT22;32206;51.446;6.792;2023-08-20T15:09:34;30.20;99.90
46492;DHT22;32206;51.446;6.792;2023-08-20T15:11:59;30.30;99.90
46492;DHT22;32206;51.446;6.792;2023-08-20T15:14:25;30.40;99.90
46492;DHT22;32206;51.446;6.792;2023-08-20T15:16:51;30.20;99.90
46492;DHT22;32206;51.446;6.792;2023-08-20T15:19:17;30.40;99.90
46492;DHT22;32206;51.446;6.792;2023-08-20T15:21:42;30.40;99.90
46492;DHT22;32206;51.446;6.792;2023-08-20T15:24:08;30.50;99.90
46492;DHT22;32206;51.446;6.792;2023-08-20T15:26:33;30.20;99.90
46492;DHT22;32206;51.446;6.792;2023-08-20T15:28:59;30.00;99.90
46492;DHT22;32206;51.446;6.792;2023-08-20T15:31:25;30.10;99.90
46492;DHT22;32206;51.446;6.792;2023-08-20T15:33:53;30.10;99.90
46492;DHT22;32206;51.446;6.792;2023-08-20T15:36:19;30.20;99.90
46492;DHT22;32206;51.446;6.792;2023-08-20T15:38:45;30.40;99.90
46492;DHT22;32206;51.446;6.792;2023-08-20T15:41:10;30.60;99.90
46492;DHT22;32206;51.446;6.792;2023-08-20T15:43:36;30.70;99.90
46492;DHT22;32206;51.446;6.792;2023-08-20T15:46:02;30.90;99.90
46492;DHT22;32206;51.446;6.792;2023-08-20T15:48:27;31.10;99.90
46492;DHT22;32206;51.446;6.792;2023-08-20T15:50:53;31.20;99.90
46492;DHT22;32206;51.446;6.792;2023-08-20T15:53:19;31.20;99.90
46492;DHT22;32206;51.446;6.792;2023-08-20T15:55:44;31.20;99.90
46492;DHT22;32206;51.446;6.792;2023-08-20T16:01:33;30.70;99.90
46492;DHT22;32206;51.446;6.792;2023-08-20T16:03:59;30.80;99.90
46492;DHT22;32206;51.446;6.792;2023-08-20T16:06:24;31.00;99.90
46492;DHT22;32206;51.446;6.792;2023-08-20T16:15:35;31.00;99.90
46492;DHT22;32206;51.446;6.792;2023-08-20T16:18:01;34.50;99.90
46492;DHT22;32206;51.446;6.792;2023-08-20T16:20:27;37.90;99.90
46492;DHT22;32206;51.446;6.792;2023-08-20T16:22:53;38.00;99.90
46492;DHT22;32206;51.446;6.792;2023-08-20T16:25:19;37.60;99.90
46492;DHT22;32206;51.446;6.792;2023-08-20T16:34:55;36.70;99.90
46492;DHT22;32206;51.446;6.792;2023-08-20T16:37:21;36.90;99.90
46492;DHT22;32206;51.446;6.792;2023-08-20T16:39:47;37.40;99.90
46492;DHT22;32206;51.446;6.792;2023-08-20T16:42:12;39.00;99.90
46492;DHT22;32206;51.446;6.792;2023-08-20T16:44:38;37.10;99.90
46492;DHT22;32206;51.446;6.792;2023-08-20T16:47:04;34.90;99.90
46492;DHT22;32206;51.446;6.792;2023-08-20T16:53:17;32.10;99.90
46492;DHT22;32206;51.446;6.792;2023-08-20T16:55:49;31.20;99.90
46492;DHT22;32206;51.446;6.792;2023-08-20T16:58:14;30.80;99.90
46492;DHT22;32206;51.446;6.792;2023-08-20T17:00:40;30.90;99.90
46492;DHT22;32206;51.446;6.792;2023-08-20T17:03:07;30.50;99.90
46492;DHT22;32206;51.446;6.792;2023-08-20T17:05:32;30.20;99.90
46492;DHT22;32206;51.446;6.792;2023-08-20T17:07:58;29.90;99.90
46492;DHT22;32206;51.446;6.792;2023-08-20T17:10:25;29.80;99.90
46492;DHT22;32206;51.446;6.792;2023-08-20T17:12:50;29.80;99.90
46492;DHT22;32206;51.446;6.792;2023-08-20T17:18:38;29.00;99.90
46492;DHT22;32206;51.446;6.792;2023-08-20T17:21:04;28.90;99.90
46492;DHT22;32206;51.446;6.792;2023-08-20T17:23:29;28.90;99.90
46492;DHT22;32206;51.446;6.792;2023-08-20T17:25:56;28.70;99.90
46492;DHT22;32206;51.446;6.792;2023-08-20T17:28:22;28.60;99.90
46492;DHT22;32206;51.446;6.792;2023-08-20T17:34:10;28.60;99.90
46492;DHT22;32206;51.446;6.792;2023-08-20T17:36:36;28.50;99.90
46492;DHT22;32206;51.446;6.792;2023-08-20T17:39:02;28.80;99.90
46492;DHT22;32206;51.446;6.792;2023-08-20T17:41:28;29.50;99.90
46492;DHT22;32206;51.446;6.792;2023-08-20T17:43:53;29.40;99.90
46492;DHT22;32206;51.446;6.792;2023-08-20T17:46:19;29.70;99.90
46492;DHT22;32206;51.446;6.792;2023-08-20T17:48:45;29.50;99.90
46492;DHT22;32206;51.446;6.792;2023-08-20T17:51:10;28.90;99.90
46492;DHT22;32206;51.446;6.792;2023-08-20T17:53:36;28.60;99.90
46492;DHT22;32206;51.446;6.792;2023-08-20T17:59:49;27.90;99.90
46492;DHT22;32206;51.446;6.792;2023-08-20T18:05:37;27.80;99.90
46492;DHT22;32206;51.446;6.792;2023-08-20T18:08:03;27.50;99.90
46492;DHT22;32206;51.446;6.792;2023-08-20T18:10:28;27.40;99.90
46492;DHT22;32206;51.446;6.792;2023-08-20T18:12:54;27.20;99.90
46492;DHT22;32206;51.446;6.792;2023-08-20T18:15:20;27.10;99.90
46492;DHT22;32206;51.446;6.792;2023-08-20T18:17:55;27.00;99.90
46492;DHT22;32206;51.446;6.792;2023-08-20T18:20:20;26.90;99.90
46492;DHT22;32206;51.446;6.792;2023-08-20T18:22:46;27.50;99.90